createdAt,value
2017-11-07T00:02:25.054Z,40.37
2017-11-07T00:04:53.366Z,118.30
2017-11-07T00:07:21.688Z,96.43
2017-11-07T00:09:50.003Z,90.80
2017-11-07T00:12:18.350Z,53.23
2017-11-07T00:14:46.671Z,136.53
2017-11-07T00:17:15.797Z,151.50
2017-11-07T00:19:44.110Z,77.70
2017-11-07T00:22:12.442Z,66.97
2017-11-07T00:24:40.783Z,218.10
2017-11-07T00:27:09.894Z,55.70
2017-11-07T00:29:38.996Z,204.63
2017-11-07T00:32:07.317Z,81.00
2017-11-07T00:34:35.638Z,152.07
2017-11-07T00:37:04.784Z,58.27
2017-11-07T00:39:33.102Z,167.40
2017-11-07T00:42:01.432Z,129.07
2017-11-07T00:44:29.763Z,97.67
2017-11-07T00:46:58.854Z,237.13
2017-11-07T00:49:27.945Z,142.93
2017-11-07T00:51:56.258Z,119.50
2017-11-07T00:54:24.571Z,84.77
2017-11-07T00:56:52.899Z,85.30
2017-11-07T00:59:21.973Z,71.80
2017-11-07T01:01:51.082Z,69.60
2017-11-07T01:04:20.171Z,87.50
2017-11-07T01:06:49.267Z,105.00
2017-11-07T01:09:18.351Z,58.07
2017-11-07T01:11:46.666Z,78.17
2017-11-07T01:14:14.995Z,103.07
2017-11-07T01:16:43.305Z,192.33
2017-11-07T01:19:12.371Z,37.23
2017-11-07T01:21:40.694Z,56.80
2017-11-07T01:24:09.011Z,48.23
2017-11-07T01:26:37.333Z,38.27
2017-11-07T01:29:06.646Z,65.13
2017-11-07T01:31:34.974Z,142.73
2017-11-07T01:34:03.306Z,47.27
2017-11-07T01:36:31.628Z,31.70
2017-11-07T01:38:59.963Z,39.67
2017-11-07T01:41:28.278Z,135.63
2017-11-07T01:43:56.596Z,170.40
2017-11-07T01:46:27.495Z,32.50
2017-11-07T01:48:55.836Z,138.17
2017-11-07T01:51:24.163Z,61.87
2017-11-07T01:53:52.493Z,58.80
2017-11-07T01:56:20.795Z,110.70
2017-11-07T01:58:49.111Z,33.93
2017-11-07T02:01:18.197Z,81.87
2017-11-07T02:03:46.509Z,33.90
2017-11-07T02:06:14.845Z,37.90
2017-11-07T02:08:43.172Z,51.43
2017-11-07T02:11:11.468Z,96.13
2017-11-07T02:13:39.799Z,109.83
2017-11-07T02:16:08.874Z,136.20
2017-11-07T02:18:37.195Z,28.50
2017-11-07T02:21:05.490Z,38.10
2017-11-07T02:23:33.802Z,39.30
2017-11-07T02:26:02.110Z,41.90
2017-11-07T02:28:31.188Z,59.53
2017-11-07T02:30:59.491Z,63.00
2017-11-07T02:33:27.842Z,44.43
2017-11-07T02:35:56.146Z,49.90
2017-11-07T02:38:24.453Z,56.37
2017-11-07T02:40:52.778Z,46.63
2017-11-07T02:43:21.850Z,109.83
2017-11-07T02:45:50.170Z,55.80
2017-11-07T02:48:18.470Z,22.70
2017-11-07T02:50:46.790Z,43.30
2017-11-07T02:53:15.121Z,29.40
2017-11-07T02:55:43.445Z,33.10
2017-11-07T02:58:11.781Z,50.17
2017-11-07T03:00:40.110Z,65.97
2017-11-07T03:03:08.423Z,42.87
2017-11-07T03:05:36.746Z,40.57
2017-11-07T03:08:05.046Z,40.63
2017-11-07T03:10:34.144Z,31.27
2017-11-07T03:13:03.207Z,32.83
2017-11-07T03:15:31.521Z,27.60
2017-11-07T03:18:00.617Z,39.10
2017-11-07T03:20:29.711Z,35.00
2017-11-07T03:22:58.810Z,31.80
2017-11-07T03:25:27.885Z,30.03
2017-11-07T03:27:56.191Z,28.17
2017-11-07T03:30:24.499Z,39.20
2017-11-07T03:32:52.808Z,37.00
2017-11-07T03:35:21.113Z,27.43
2017-11-07T03:37:50.184Z,37.17
2017-11-07T03:40:18.493Z,50.50
2017-11-07T03:42:47.556Z,35.87
2017-11-07T03:45:15.874Z,38.20
2017-11-07T03:47:44.200Z,34.43
2017-11-07T03:50:12.504Z,30.50
2017-11-07T03:52:41.573Z,31.63
2017-11-07T03:55:09.890Z,39.60
2017-11-07T03:57:38.946Z,46.30
2017-11-07T04:00:07.249Z,41.30
2017-11-07T04:02:36.337Z,50.07
2017-11-07T04:05:04.650Z,62.70
2017-11-07T04:07:32.951Z,36.10
2017-11-07T04:10:01.262Z,31.47
2017-11-07T04:12:29.568Z,51.17
2017-11-07T04:14:57.892Z,42.60
2017-11-07T04:17:26.199Z,55.83
2017-11-07T04:19:54.494Z,64.70
2017-11-07T04:22:23.577Z,53.97
2017-11-07T04:24:51.877Z,31.03
2017-11-07T04:27:20.190Z,69.07
2017-11-07T04:29:48.501Z,34.03
2017-11-07T04:32:16.809Z,25.47
2017-11-07T04:34:45.102Z,60.07
2017-11-07T04:37:13.411Z,29.63
2017-11-07T04:39:41.714Z,67.47
2017-11-07T04:42:10.790Z,37.87
2017-11-07T04:44:39.097Z,43.30
2017-11-07T04:47:08.174Z,24.07
2017-11-07T04:49:36.481Z,37.10
2017-11-07T04:52:04.793Z,34.53
2017-11-07T04:54:33.091Z,27.83
2017-11-07T04:57:01.399Z,31.13
2017-11-07T04:59:30.473Z,60.37
2017-11-07T05:01:58.786Z,39.23
2017-11-07T05:04:27.098Z,70.37
2017-11-07T05:06:55.419Z,32.73
2017-11-07T05:09:24.488Z,48.37
2017-11-07T05:11:52.794Z,28.53
2017-11-07T05:14:21.901Z,29.57
2017-11-07T05:16:50.214Z,43.77
2017-11-07T05:19:18.507Z,31.73
2017-11-07T05:21:46.837Z,88.23
2017-11-07T05:24:15.161Z,98.93
2017-11-07T05:26:43.465Z,52.67
2017-11-07T05:29:11.798Z,117.00
2017-11-07T05:31:40.117Z,65.37
2017-11-07T05:34:08.429Z,76.63
2017-11-07T05:36:36.754Z,70.87
2017-11-07T05:39:05.103Z,73.90
2017-11-07T05:41:33.423Z,49.87
2017-11-07T05:44:01.725Z,51.17
2017-11-07T05:46:30.803Z,34.60
2017-11-07T05:48:59.889Z,40.97
2017-11-07T05:51:28.204Z,88.67
2017-11-07T05:53:56.521Z,38.87
2017-11-07T05:56:24.825Z,112.33
2017-11-07T05:58:53.137Z,51.10
2017-11-07T06:01:21.437Z,61.07
2017-11-07T06:03:49.736Z,85.10
2017-11-07T06:06:18.033Z,44.97
2017-11-07T06:08:46.345Z,76.83
2017-11-07T06:11:14.661Z,69.10
2017-11-07T06:13:42.977Z,60.80
2017-11-07T06:16:12.057Z,76.57
2017-11-07T06:18:40.372Z,38.60
2017-11-07T06:21:08.693Z,45.30
2017-11-07T06:23:37.009Z,52.67
2017-11-07T06:26:06.087Z,53.27
2017-11-07T06:28:34.419Z,47.23
2017-11-07T06:31:02.717Z,79.23
2017-11-07T06:33:31.029Z,52.10
2017-11-07T06:36:00.097Z,71.10
2017-11-07T06:38:28.417Z,134.90
2017-11-07T06:40:57.477Z,59.17
2017-11-07T06:43:25.789Z,64.10
2017-11-07T06:45:54.863Z,47.77
2017-11-07T06:48:23.938Z,53.63
2017-11-07T06:50:52.338Z,56.40
2017-11-07T06:53:21.422Z,60.67
2017-11-07T06:55:49.725Z,77.47
2017-11-07T06:58:18.808Z,49.00
2017-11-07T07:00:47.950Z,45.83
2017-11-07T07:03:16.282Z,62.83
2017-11-07T07:05:45.366Z,78.93
2017-11-07T07:08:13.692Z,95.67
2017-11-07T07:10:42.009Z,77.50
2017-11-07T07:13:10.348Z,61.07
2017-11-07T07:15:38.650Z,74.63
2017-11-07T07:18:06.952Z,84.90
2017-11-07T07:20:35.265Z,85.43
2017-11-07T07:23:03.584Z,121.57
2017-11-07T07:25:31.900Z,69.73
2017-11-07T07:28:00.970Z,58.03
2017-11-07T07:30:29.302Z,55.80
2017-11-07T07:32:57.609Z,56.57
2017-11-07T07:35:26.041Z,56.70
2017-11-07T07:37:54.358Z,59.23
2017-11-07T07:40:22.675Z,77.00
2017-11-07T07:42:50.985Z,58.40
2017-11-07T07:45:19.302Z,63.97
2017-11-07T07:47:47.605Z,61.80
2017-11-07T07:50:15.919Z,56.80
2017-11-07T07:52:44.225Z,66.97
2017-11-07T07:55:12.569Z,59.87
2017-11-07T07:57:40.865Z,84.13
2017-11-07T08:00:09.196Z,112.40
2017-11-07T08:02:38.393Z,79.40
2017-11-07T08:05:06.725Z,65.30
2017-11-07T08:07:35.074Z,53.70
2017-11-07T08:10:03.410Z,71.50
2017-11-07T08:12:31.731Z,61.87
2017-11-07T08:15:00.060Z,98.03
2017-11-07T08:17:28.385Z,73.77
2017-11-07T08:19:56.698Z,65.63
2017-11-07T08:22:25.001Z,76.37
2017-11-07T08:24:53.314Z,57.37
2017-11-07T08:27:21.617Z,40.70
2017-11-07T08:29:49.936Z,60.93
2017-11-07T08:32:18.244Z,43.40
2017-11-07T08:34:46.560Z,43.87
2017-11-07T08:37:14.861Z,40.43
2017-11-07T08:39:43.178Z,47.60
2017-11-07T08:42:11.617Z,49.13
2017-11-07T08:44:40.109Z,47.53
2017-11-07T08:47:08.426Z,41.33
2017-11-07T08:49:36.744Z,44.13
2017-11-07T08:52:05.087Z,48.87
2017-11-07T08:54:33.430Z,35.87
2017-11-07T08:57:01.721Z,32.80
2017-11-07T08:59:30.797Z,29.07
2017-11-07T09:01:59.108Z,28.30
2017-11-07T09:04:27.417Z,21.17
2017-11-07T09:06:55.729Z,24.83
2017-11-07T09:09:24.041Z,21.40
2017-11-07T09:11:52.364Z,29.87
2017-11-07T09:14:20.675Z,21.03
2017-11-07T09:16:49.754Z,27.30
2017-11-07T09:19:18.052Z,27.40
2017-11-07T09:21:47.126Z,31.87
2017-11-07T09:24:15.434Z,23.43
2017-11-07T09:26:43.751Z,26.30
2017-11-07T09:29:12.072Z,21.97
2017-11-07T09:31:41.153Z,31.70
2017-11-07T09:34:09.461Z,24.00
2017-11-07T09:36:37.786Z,21.80
2017-11-07T09:39:06.130Z,26.20
2017-11-07T09:41:34.447Z,17.97
2017-11-07T09:44:02.778Z,19.87
2017-11-07T09:46:31.095Z,21.57
2017-11-07T09:48:59.407Z,19.10
2017-11-07T09:51:28.510Z,21.67
2017-11-07T09:53:57.595Z,22.73
2017-11-07T09:56:26.691Z,20.83
2017-11-07T09:58:55.800Z,17.43
2017-11-07T10:01:24.881Z,23.73
2017-11-07T10:03:53.961Z,21.30
2017-11-07T10:06:22.276Z,18.57
2017-11-07T10:08:50.585Z,25.87
2017-11-07T10:11:18.907Z,33.97
2017-11-07T10:13:47.981Z,24.77
2017-11-07T10:16:16.305Z,32.70
2017-11-07T10:18:44.611Z,32.37
2017-11-07T10:21:13.691Z,25.40
2017-11-07T10:23:41.990Z,25.13
2017-11-07T10:26:10.302Z,30.47
2017-11-07T10:28:38.617Z,24.60
2017-11-07T10:31:06.925Z,29.43
2017-11-07T10:33:35.232Z,23.30
2017-11-07T10:36:03.541Z,26.00
2017-11-07T10:38:31.851Z,25.27
2017-11-07T10:41:00.164Z,26.83
2017-11-07T10:43:28.473Z,25.30
2017-11-07T10:45:57.354Z,25.70
2017-11-07T10:48:26.429Z,25.97
2017-11-07T10:50:54.736Z,21.73
2017-11-07T10:53:23.081Z,21.10
2017-11-07T10:55:51.373Z,26.40
2017-11-07T10:58:20.442Z,21.83
2017-11-07T11:00:48.753Z,20.23
2017-11-07T11:03:17.087Z,22.90
2017-11-07T11:05:45.402Z,21.73
2017-11-07T11:08:14.497Z,20.53
2017-11-07T11:10:43.557Z,20.53
2017-11-07T11:13:11.883Z,21.37
2017-11-07T11:15:40.194Z,18.93
2017-11-07T11:18:08.501Z,25.40
2017-11-07T11:20:36.797Z,21.80
2017-11-07T11:23:05.873Z,20.53
2017-11-07T11:25:34.174Z,21.53
2017-11-07T11:28:03.270Z,20.90
2017-11-07T11:30:32.339Z,25.60
2017-11-07T11:33:00.682Z,26.20
2017-11-07T11:35:28.993Z,21.83
2017-11-07T11:37:57.304Z,26.10
2017-11-07T11:40:25.617Z,19.80
2017-11-07T11:42:53.929Z,27.37
2017-11-07T11:45:22.233Z,20.73
2017-11-07T11:47:51.322Z,22.17
2017-11-07T11:50:20.389Z,23.50
2017-11-07T11:52:48.698Z,20.17
2017-11-07T11:55:17.054Z,21.00
2017-11-07T11:57:45.393Z,18.97
2017-11-07T12:00:13.706Z,22.50
2017-11-07T12:02:42.017Z,25.23
2017-11-07T12:05:10.313Z,27.37
2017-11-07T12:07:38.641Z,24.27
2017-11-07T12:10:07.731Z,22.50
2017-11-07T12:15:09.575Z,23.87
2017-11-07T12:17:37.881Z,19.80
2017-11-07T12:20:06.225Z,18.00
2017-11-07T12:22:34.534Z,18.73
2017-11-07T12:25:02.833Z,24.63
2017-11-07T12:27:31.909Z,23.70
2017-11-07T12:30:00.213Z,25.60
2017-11-07T12:32:29.287Z,23.77
2017-11-07T12:34:57.582Z,18.40
2017-11-07T12:37:26.660Z,19.50
2017-11-07T12:39:55.738Z,19.43
2017-11-07T12:42:24.046Z,20.83
2017-11-07T12:44:53.108Z,17.23
2017-11-07T12:47:21.413Z,24.60
2017-11-07T12:49:51.067Z,32.30
2017-11-07T12:52:19.377Z,24.30
2017-11-07T12:54:47.691Z,23.10
2017-11-07T12:57:16.804Z,20.67
2017-11-07T12:59:45.126Z,22.90
2017-11-07T13:02:13.437Z,27.17
2017-11-07T13:04:42.546Z,21.77
2017-11-07T13:07:10.854Z,24.60
2017-11-07T13:09:39.165Z,21.80
2017-11-07T13:12:08.278Z,21.50
2017-11-07T13:14:37.357Z,22.30
2017-11-07T13:17:05.662Z,30.60
2017-11-07T13:19:33.973Z,22.30
2017-11-07T13:22:02.276Z,24.20
2017-11-07T13:24:30.586Z,24.80
2017-11-07T13:26:58.900Z,20.93
2017-11-07T13:29:27.202Z,28.23
2017-11-07T13:31:55.501Z,26.23
2017-11-07T13:34:24.733Z,23.43
2017-11-07T13:36:53.049Z,22.30
2017-11-07T13:39:21.371Z,28.47
2017-11-07T13:41:50.437Z,18.83
2017-11-07T13:44:18.746Z,22.17
2017-11-07T13:46:47.825Z,28.20
2017-11-07T13:49:16.911Z,25.53
2017-11-07T13:51:45.209Z,22.53
2017-11-07T13:54:14.285Z,24.33
2017-11-07T13:56:43.009Z,26.97
2017-11-07T13:59:11.321Z,23.00
2017-11-07T14:01:39.617Z,31.60
2017-11-07T14:04:07.939Z,26.03
2017-11-07T14:06:36.253Z,26.10
2017-11-07T14:09:04.595Z,27.73
2017-11-07T14:11:32.906Z,25.87
2017-11-07T14:14:01.231Z,28.60
2017-11-07T14:16:30.298Z,27.53
2017-11-07T14:18:58.621Z,31.70
2017-11-07T14:21:26.937Z,23.90
2017-11-07T14:23:55.245Z,21.67
2017-11-07T14:26:23.537Z,23.40
2017-11-07T14:28:51.861Z,21.67
2017-11-07T14:31:20.187Z,21.40
2017-11-07T14:33:49.277Z,18.10
2017-11-07T14:36:18.345Z,20.50
2017-11-07T14:38:47.389Z,23.50
2017-11-07T14:41:15.729Z,27.63
2017-11-07T14:43:44.074Z,23.93
2017-11-07T14:46:12.378Z,24.13
2017-11-07T14:48:40.714Z,17.43
2017-11-07T14:51:09.097Z,20.87
2017-11-07T14:53:37.405Z,21.67
2017-11-07T14:56:05.717Z,23.80
2017-11-07T14:58:34.057Z,22.13
2017-11-07T15:01:02.355Z,21.53
2017-11-07T15:03:31.464Z,21.70
2017-11-07T15:06:00.541Z,28.30
2017-11-07T15:08:28.868Z,20.50
2017-11-07T15:10:57.173Z,26.53
2017-11-07T15:13:25.505Z,18.17
2017-11-07T15:15:53.817Z,27.50
2017-11-07T15:18:22.124Z,25.97
2017-11-07T15:20:50.446Z,27.67
2017-11-07T15:23:18.745Z,20.97
2017-11-07T15:25:47.059Z,34.70
2017-11-07T15:28:15.388Z,21.70
2017-11-07T15:30:43.707Z,30.53
2017-11-07T15:33:11.997Z,25.00
2017-11-07T15:35:40.317Z,26.87
2017-11-07T15:38:08.621Z,33.53
2017-11-07T15:40:36.936Z,28.13
2017-11-07T15:43:05.244Z,24.40
2017-11-07T15:45:33.549Z,28.53
2017-11-07T15:48:01.846Z,31.73
2017-11-07T15:50:30.158Z,21.63
2017-11-07T15:52:59.225Z,35.63
2017-11-07T15:55:27.545Z,22.53
2017-11-07T15:57:55.864Z,25.43
2017-11-07T16:00:25.307Z,26.27
2017-11-07T16:02:53.641Z,25.13
2017-11-07T16:05:21.997Z,25.73
2017-11-07T16:07:50.293Z,25.97
2017-11-07T16:10:18.596Z,29.60
2017-11-07T16:12:47.669Z,28.13
2017-11-07T16:15:15.973Z,28.73
2017-11-07T16:17:44.269Z,27.40
2017-11-07T16:20:13.393Z,27.47
2017-11-07T16:22:41.690Z,23.53
2017-11-07T16:25:09.993Z,22.67
2017-11-07T16:27:38.290Z,25.70
2017-11-07T16:30:07.381Z,26.47
2017-11-07T16:32:36.485Z,25.23
2017-11-07T16:35:05.557Z,27.60
2017-11-07T16:37:33.852Z,24.90
2017-11-07T16:40:02.929Z,26.07
2017-11-07T16:42:31.230Z,19.80
2017-11-07T16:44:59.545Z,26.03
2017-11-07T16:47:27.849Z,25.23
2017-11-07T16:49:56.173Z,21.37
2017-11-07T16:52:24.481Z,24.83
2017-11-07T16:54:52.793Z,25.77
2017-11-07T16:57:21.116Z,27.97
2017-11-07T16:59:49.417Z,25.87
2017-11-07T17:02:17.761Z,19.63
2017-11-07T17:04:46.085Z,19.37
2017-11-07T17:07:14.629Z,20.50
2017-11-07T17:09:42.953Z,23.27
2017-11-07T17:12:11.269Z,25.73
2017-11-07T17:14:40.341Z,31.37
2017-11-07T17:17:09.405Z,17.73
2017-11-07T17:19:37.742Z,23.23
2017-11-07T17:22:06.041Z,19.13
2017-11-07T17:24:34.416Z,27.60
2017-11-07T17:27:02.730Z,25.20
2017-11-07T17:29:31.045Z,23.37
2017-11-07T17:31:59.362Z,26.87
2017-11-07T17:34:27.677Z,22.63
2017-11-07T17:36:56.008Z,26.87
2017-11-07T17:39:24.334Z,28.87
2017-11-07T17:41:52.660Z,19.20
2017-11-07T17:44:20.977Z,24.20
2017-11-07T17:46:50.108Z,28.70
2017-11-07T17:49:18.414Z,20.70
2017-11-07T17:51:46.733Z,24.90
2017-11-07T17:54:15.048Z,25.13
2017-11-07T17:56:43.384Z,20.87
2017-11-07T17:59:11.702Z,22.90
2017-11-07T18:01:40.025Z,21.87
2017-11-07T18:04:08.370Z,22.50
2017-11-07T18:06:36.686Z,21.93
2017-11-07T18:09:05.026Z,19.70
2017-11-07T18:11:33.367Z,17.63
2017-11-07T18:14:02.438Z,21.60
2017-11-07T18:16:30.762Z,14.00
2017-11-07T18:18:59.066Z,20.57
2017-11-07T18:21:27.421Z,20.23
2017-11-07T18:23:55.724Z,16.50
2017-11-07T18:26:24.069Z,20.30
2017-11-07T18:28:52.389Z,31.47
2017-11-07T18:31:20.714Z,23.90
2017-11-07T18:33:49.777Z,23.57
2017-11-07T18:36:18.103Z,17.37
2017-11-07T18:38:46.417Z,13.60
2017-11-07T18:41:14.773Z,24.20
2017-11-07T18:43:43.109Z,22.47
2017-11-07T18:46:12.189Z,16.40
2017-11-07T18:48:40.526Z,19.00
2017-11-07T18:51:09.199Z,13.30
2017-11-07T18:53:37.561Z,17.73
2017-11-07T18:56:05.881Z,20.07
2017-11-07T18:58:34.244Z,21.47
2017-11-07T19:01:02.557Z,19.13
2017-11-07T19:03:30.873Z,19.83
2017-11-07T19:05:59.233Z,18.03
2017-11-07T19:08:27.561Z,23.73
2017-11-07T19:10:55.878Z,23.43
2017-11-07T19:13:24.199Z,17.37
2017-11-07T19:15:52.526Z,20.40
2017-11-07T19:18:20.933Z,18.40
2017-11-07T19:20:50.015Z,19.00
2017-11-07T19:23:18.329Z,15.87
2017-11-07T19:25:46.638Z,26.97
2017-11-07T19:28:14.966Z,24.73
2017-11-07T19:30:43.279Z,19.53
2017-11-07T19:33:11.625Z,19.30
2017-11-07T19:35:39.935Z,19.63
2017-11-07T19:38:08.303Z,17.37
2017-11-07T19:40:36.602Z,23.50
2017-11-07T19:43:04.929Z,29.00
2017-11-07T19:45:34.021Z,20.87
2017-11-07T19:48:03.103Z,20.07
2017-11-07T19:50:32.183Z,21.50
2017-11-07T19:53:00.501Z,24.53
2017-11-07T19:55:28.806Z,26.43
2017-11-07T19:57:57.138Z,26.83
2017-11-07T20:00:26.225Z,20.37
2017-11-07T20:02:54.565Z,29.80
2017-11-07T20:05:22.887Z,23.00
2017-11-07T20:07:51.982Z,24.33
2017-11-07T20:10:21.060Z,27.80
2017-11-07T20:12:49.377Z,27.43
2017-11-07T20:15:17.673Z,21.43
2017-11-07T20:17:46.002Z,26.67
2017-11-07T20:20:15.104Z,27.33
2017-11-07T20:22:44.199Z,36.03
2017-11-07T20:25:13.292Z,28.17
2017-11-07T20:27:41.601Z,34.30
2017-11-07T20:30:09.970Z,25.47
2017-11-07T20:32:38.294Z,29.60
2017-11-07T20:35:06.634Z,26.60
2017-11-07T20:37:34.989Z,30.77
2017-11-07T20:40:04.099Z,33.73
2017-11-07T20:42:32.436Z,31.63
2017-11-07T20:45:00.784Z,30.97
2017-11-07T20:47:29.109Z,32.90
2017-11-07T20:49:58.203Z,30.30
2017-11-07T20:52:27.298Z,36.37
2017-11-07T20:54:55.617Z,31.23
2017-11-07T20:57:23.927Z,27.83
2017-11-07T20:59:52.253Z,40.63
2017-11-07T21:02:20.573Z,29.60
2017-11-07T21:04:48.905Z,36.27
2017-11-07T21:07:17.268Z,35.77
2017-11-07T21:09:46.356Z,32.97
2017-11-07T21:12:14.670Z,36.97
2017-11-07T21:14:43.853Z,31.63
2017-11-07T21:17:12.174Z,36.50
2017-11-07T21:19:40.506Z,34.27
2017-11-07T21:22:08.810Z,44.10
2017-11-07T21:24:37.134Z,39.70
2017-11-07T21:27:05.439Z,47.97
2017-11-07T21:29:34.526Z,43.13
2017-11-07T21:32:03.605Z,50.47
2017-11-07T21:34:31.917Z,37.53
2017-11-07T21:37:00.251Z,44.77
2017-11-07T21:39:28.553Z,42.83
2017-11-07T21:41:57.646Z,38.33
2017-11-07T21:44:26.727Z,41.97
2017-11-07T21:46:55.048Z,43.47
2017-11-07T21:49:23.379Z,48.90
2017-11-07T21:51:51.713Z,42.73
2017-11-07T21:54:20.038Z,46.13
2017-11-07T21:56:48.362Z,40.27
2017-11-07T21:59:16.688Z,36.77
2017-11-07T22:01:45.023Z,41.10
2017-11-07T22:04:13.349Z,44.67
2017-11-07T22:06:41.657Z,49.37
2017-11-07T22:09:12.314Z,45.73
2017-11-07T22:11:40.641Z,38.00
2017-11-07T22:14:08.942Z,44.00
2017-11-07T22:16:42.882Z,44.50
2017-11-07T22:19:13.094Z,45.33
2017-11-07T22:21:41.411Z,40.93
2017-11-07T22:24:09.717Z,47.57
2017-11-07T22:26:38.805Z,47.17
2017-11-07T22:29:07.902Z,52.20
2017-11-07T22:31:36.981Z,46.60
2017-11-07T22:34:05.290Z,45.73
2017-11-07T22:36:33.616Z,53.27
2017-11-07T22:39:01.937Z,57.10
2017-11-07T22:41:31.018Z,58.00
2017-11-07T22:44:00.096Z,58.80
2017-11-07T22:46:28.405Z,56.43
2017-11-07T22:48:56.701Z,64.83
2017-11-07T22:51:25.049Z,56.20
2017-11-07T22:53:54.125Z,70.73
2017-11-07T22:56:22.443Z,60.30
2017-11-07T22:58:50.767Z,59.50
2017-11-07T23:01:19.086Z,62.77
2017-11-07T23:03:48.149Z,61.80
2017-11-07T23:06:17.961Z,69.07
2017-11-07T23:08:46.281Z,63.80
2017-11-07T23:11:14.593Z,67.83
2017-11-07T23:13:42.910Z,65.97
2017-11-07T23:16:11.221Z,62.93
2017-11-07T23:18:39.545Z,61.47
2017-11-07T23:21:07.873Z,60.63
2017-11-07T23:23:36.200Z,84.23
2017-11-07T23:26:04.516Z,64.20
2017-11-07T23:28:33.588Z,70.70
2017-11-07T23:31:01.921Z,68.23
2017-11-07T23:33:30.222Z,83.10
2017-11-07T23:35:58.540Z,68.17
2017-11-07T23:38:27.616Z,87.90
2017-11-07T23:40:55.946Z,88.37
2017-11-07T23:43:24.268Z,73.73
2017-11-07T23:45:52.601Z,83.87
2017-11-07T23:48:20.929Z,74.90
2017-11-07T23:50:49.247Z,91.80
2017-11-07T23:53:17.581Z,88.83
2017-11-07T23:55:45.899Z,85.83
2017-11-07T23:58:14.216Z,76.57
